Time;durP1;ratioP1;P1;durP2;ratioP2;P2;SDS_P1;SDS_P2;PMS_P1;PMS_P2;Temp;Humidity;BMP_temperature;BMP_pressure;BME280_temperature;BME280_humidity;BME280_pressure;Samples;Min_cycle;Max_cycle;Signal;HPM_P1;HPM_P2
2024/03/23 00:02:17;;;;;;;20.90;8.63;;;8.00;99.90;;;;;;4911355;29;20208;-62
2024/03/23 00:04:48;;;;;;;17.33;8.80;;;8.00;99.90;;;;;;4910864;29;20317;-61
2024/03/23 00:07:18;;;;;;;19.60;8.97;;;7.90;99.90;;;;;;4911372;29;20617;-61
2024/03/23 00:09:48;;;;;;;18.47;8.60;;;7.80;99.90;;;;;;4912484;29;20226;-61
2024/03/23 00:12:20;;;;;;;22.07;9.07;;;7.70;99.90;;;;;;4925811;29;20230;-61
2024/03/23 00:14:50;;;;;;;19.00;7.90;;;7.60;99.90;;;;;;4928267;29;20276;-61
2024/03/23 00:17:20;;;;;;;17.37;8.00;;;7.50;99.90;;;;;;4914045;29;20281;-61
2024/03/23 00:19:51;;;;;;;16.43;7.30;;;7.50;99.90;;;;;;4912799;29;20243;-61
2024/03/23 00:22:22;;;;;;;22.00;8.00;;;7.40;99.90;;;;;;4893803;29;20225;-61
2024/03/23 00:24:52;;;;;;;20.33;6.97;;;7.40;99.90;;;;;;4909753;29;20221;-61
2024/03/23 00:27:23;;;;;;;20.10;7.00;;;7.40;99.90;;;;;;4911856;29;20579;-62
2024/03/23 00:29:53;;;;;;;21.33;7.43;;;7.30;99.90;;;;;;4927275;29;20737;-61
2024/03/23 00:32:24;;;;;;;19.43;7.43;;;7.30;99.90;;;;;;4923498;29;20204;-61
2024/03/23 00:34:54;;;;;;;15.43;7.20;;;7.20;99.90;;;;;;4904800;29;20795;-61
2024/03/23 00:37:25;;;;;;;25.10;7.53;;;7.20;99.90;;;;;;4909708;29;20225;-61
2024/03/23 00:39:55;;;;;;;21.87;7.83;;;7.10;99.90;;;;;;4911902;29;20243;-61
2024/03/23 00:42:26;;;;;;;30.67;8.47;;;7.00;99.90;;;;;;4896817;29;20225;-61
2024/03/23 00:44:56;;;;;;;24.10;7.97;;;6.90;99.90;;;;;;4909693;29;20237;-61
2024/03/23 00:47:27;;;;;;;18.53;7.97;;;6.90;99.90;;;;;;4909761;29;20194;-61
2024/03/23 00:49:57;;;;;;;23.20;8.37;;;6.80;99.90;;;;;;4925112;29;20684;-61
2024/03/23 00:52:28;;;;;;;25.73;8.67;;;6.70;99.90;;;;;;4911135;29;20257;-61
2024/03/23 00:54:56;;;;;;;28.47;9.17;;;6.70;99.90;;;;;;4911507;29;20655;-61
2024/03/23 00:57:23;;;;;;;29.37;9.60;;;6.70;99.90;;;;;;4910558;29;20312;-61
2024/03/23 00:59:50;;;;;;;25.33;8.60;;;6.70;99.90;;;;;;4911614;29;20228;-60
2024/03/23 01:02:17;;;;;;;40.47;8.77;;;6.60;99.90;;;;;;4915470;29;20228;-61
2024/03/23 01:04:43;;;;;;;39.10;9.70;;;6.60;99.90;;;;;;4911336;29;20222;-61
2024/03/23 01:07:11;;;;;;;26.37;8.90;;;6.60;99.90;;;;;;4910207;29;20225;-61
2024/03/23 01:09:38;;;;;;;25.30;9.70;;;6.50;99.90;;;;;;4914486;29;20214;-61
2024/03/23 01:12:07;;;;;;;37.10;9.87;;;6.60;99.90;;;;;;4912264;29;20221;-61
2024/03/23 01:14:35;;;;;;;33.43;10.00;;;6.60;99.90;;;;;;4909967;29;20207;-61
2024/03/23 01:17:05;;;;;;;22.60;9.23;;;6.60;99.90;;;;;;4913474;29;20197;-61
2024/03/23 01:19:31;;;;;;;26.73;10.07;;;6.70;99.90;;;;;;4910381;29;20220;-61
2024/03/23 01:21:59;;;;;;;41.17;11.13;;;6.70;99.90;;;;;;4912523;29;20565;-61
2024/03/23 01:24:25;;;;;;;37.77;11.43;;;6.70;99.90;;;;;;4908454;29;20231;-61
2024/03/23 01:26:52;;;;;;;32.30;11.37;;;6.80;99.90;;;;;;4914130;29;20596;-61
2024/03/23 01:29:21;;;;;;;33.23;12.57;;;6.80;99.90;;;;;;4912472;29;20292;-61
2024/03/23 01:31:48;;;;;;;41.90;12.63;;;6.80;99.90;;;;;;4913662;29;20267;-61
2024/03/23 01:34:14;;;;;;;41.27;13.43;;;6.90;99.90;;;;;;4907165;29;20225;-61
2024/03/23 01:36:42;;;;;;;33.37;13.00;;;6.90;99.90;;;;;;4909584;29;20221;-61
2024/03/23 01:39:09;;;;;;;33.70;13.00;;;6.90;99.90;;;;;;4907084;29;20302;-61
2024/03/23 01:41:37;;;;;;;43.60;14.33;;;6.90;99.90;;;;;;4909622;29;20229;-60
2024/03/23 01:44:06;;;;;;;42.33;14.97;;;7.00;99.90;;;;;;4912417;29;20209;-62
2024/03/23 01:46:34;;;;;;;42.23;13.90;;;7.00;99.90;;;;;;4908921;29;20225;-61
2024/03/23 01:49:01;;;;;;;42.10;14.37;;;7.00;99.90;;;;;;4911349;29;20267;-61
2024/03/23 01:51:30;;;;;;;37.40;14.53;;;7.00;99.90;;;;;;4910574;29;20257;-61
2024/03/23 01:53:57;;;;;;;41.63;15.17;;;7.00;99.90;;;;;;4907833;29;21936;-61
2024/03/23 01:56:24;;;;;;;39.77;14.90;;;7.00;99.90;;;;;;4916124;29;20198;-61
2024/03/23 01:58:50;;;;;;;41.87;14.47;;;7.00;99.90;;;;;;4920825;29;20217;-61
2024/03/23 02:01:19;;;;;;;41.27;14.70;;;7.00;99.90;;;;;;4908500;29;20305;-61
2024/03/23 02:03:46;;;;;;;42.13;14.90;;;7.00;99.90;;;;;;4910933;29;20221;-61
2024/03/23 02:06:14;;;;;;;38.67;15.03;;;7.00;99.90;;;;;;4909518;29;20261;-61
2024/03/23 02:08:40;;;;;;;47.40;14.93;;;7.00;99.90;;;;;;4908184;29;20266;-61
2024/03/23 02:11:08;;;;;;;47.27;15.50;;;7.00;99.90;;;;;;4906263;29;20221;-61
2024/03/23 02:13:34;;;;;;;47.87;15.40;;;6.90;99.90;;;;;;4906451;29;20221;-61
2024/03/23 02:16:02;;;;;;;36.20;15.60;;;6.90;99.90;;;;;;4905410;29;20221;-61
2024/03/23 02:18:28;;;;;;;39.50;14.67;;;6.90;99.90;;;;;;4913948;29;20224;-61
2024/03/23 02:20:57;;;;;;;38.57;15.43;;;6.90;99.90;;;;;;4914697;29;20232;-61
2024/03/23 02:23:25;;;;;;;39.77;14.30;;;6.80;99.90;;;;;;4914095;29;20232;-61
2024/03/23 02:25:53;;;;;;;38.33;14.53;;;6.80;99.90;;;;;;4911428;29;20575;-61
2024/03/23 02:28:19;;;;;;;43.63;14.80;;;6.80;99.90;;;;;;4911618;29;20316;-61
2024/03/23 02:30:47;;;;;;;34.83;14.70;;;6.80;99.90;;;;;;4904616;29;20233;-61
2024/03/23 02:33:13;;;;;;;38.83;14.67;;;6.80;99.90;;;;;;4910852;29;20221;-60
2024/03/23 02:35:42;;;;;;;39.53;13.33;;;6.80;99.90;;;;;;4910865;29;20272;-61
2024/03/23 02:38:10;;;;;;;35.00;13.10;;;6.80;99.90;;;;;;4911956;29;20197;-61
2024/03/23 02:40:38;;;;;;;31.93;13.70;;;6.80;99.90;;;;;;4910366;29;20225;-61
2024/03/23 02:43:05;;;;;;;29.70;13.30;;;6.80;99.90;;;;;;4909566;29;20221;-61
2024/03/23 02:45:32;;;;;;;32.37;14.10;;;6.80;99.90;;;;;;4908792;29;20632;-61
2024/03/23 02:47:59;;;;;;;33.27;13.23;;;6.80;99.90;;;;;;4905881;29;20251;-61
2024/03/23 02:50:26;;;;;;;31.20;13.10;;;6.80;99.90;;;;;;4914661;29;20206;-61
2024/03/23 02:52:52;;;;;;;32.90;12.93;;;6.80;99.90;;;;;;4907813;29;20319;-61
2024/03/23 02:55:21;;;;;;;33.20;11.93;;;6.80;99.90;;;;;;4910110;29;20255;-61
2024/03/23 02:57:49;;;;;;;34.10;12.67;;;6.70;99.90;;;;;;4911109;29;20223;-61
2024/03/23 03:00:35;;;;;;;26.37;11.97;;;6.70;99.90;;;;;;4915240;29;20224;-61
2024/03/23 03:03:03;;;;;;;26.07;10.93;;;6.70;99.90;;;;;;4893514;29;20231;-61
2024/03/23 03:05:30;;;;;;;25.20;10.97;;;6.70;99.90;;;;;;4916978;29;20705;-61
2024/03/23 03:07:56;;;;;;;28.83;11.40;;;6.60;99.90;;;;;;4909995;29;20194;-61
2024/03/23 03:10:24;;;;;;;32.93;10.97;;;6.60;99.90;;;;;;4910981;29;20249;-61
2024/03/23 03:12:51;;;;;;;28.87;10.60;;;6.50;99.90;;;;;;4911206;29;20217;-61
2024/03/23 03:15:19;;;;;;;30.53;10.63;;;6.50;99.90;;;;;;4915571;29;20217;-61
2024/03/23 03:17:46;;;;;;;21.43;11.13;;;6.40;99.90;;;;;;4913468;29;20189;-61
2024/03/23 03:20:17;;;;;;;29.13;11.20;;;6.40;99.90;;;;;;4911862;29;20292;-61
2024/03/23 03:22:43;;;;;;;26.47;11.53;;;6.40;99.90;;;;;;4914805;29;20711;-61
2024/03/23 03:25:11;;;;;;;30.93;10.20;;;6.40;99.90;;;;;;4921625;29;20704;-60
2024/03/23 03:27:40;;;;;;;25.80;10.20;;;6.40;99.90;;;;;;4914166;29;20272;-61
2024/03/23 03:30:09;;;;;;;27.17;10.33;;;6.40;99.90;;;;;;4915285;29;20227;-61
2024/03/23 03:32:36;;;;;;;28.00;10.77;;;6.30;99.90;;;;;;4898152;29;20685;-61
2024/03/23 03:35:04;;;;;;;26.27;10.13;;;6.20;99.90;;;;;;4913848;29;20699;-61
2024/03/23 03:37:31;;;;;;;29.47;9.50;;;6.10;99.90;;;;;;4929587;29;20308;-61
2024/03/23 03:39:58;;;;;;;27.40;10.20;;;6.00;99.90;;;;;;4914214;29;20223;-61
2024/03/23 03:42:24;;;;;;;24.37;9.47;;;6.00;99.90;;;;;;4912295;29;20304;-61
2024/03/23 03:44:53;;;;;;;27.83;10.37;;;6.00;99.90;;;;;;4916874;29;20280;-61
2024/03/23 03:47:21;;;;;;;28.20;9.80;;;6.00;99.90;;;;;;4914192;29;20197;-61
2024/03/23 03:49:49;;;;;;;23.77;8.93;;;6.00;99.90;;;;;;4916430;29;20246;-61
2024/03/23 03:52:15;;;;;;;28.20;8.87;;;6.00;99.90;;;;;;4913452;29;20228;-61
2024/03/23 03:54:42;;;;;;;23.73;8.73;;;6.00;99.90;;;;;;4912931;29;20248;-61
2024/03/23 03:57:09;;;;;;;26.87;8.50;;;6.00;99.90;;;;;;4895374;29;20226;-61
2024/03/23 03:59:36;;;;;;;24.20;7.77;;;6.00;99.90;;;;;;4911010;29;20205;-61
2024/03/23 04:02:03;;;;;;;25.57;9.30;;;5.90;99.90;;;;;;4909338;29;20204;-61
2024/03/23 04:04:32;;;;;;;15.23;8.50;;;5.90;99.90;;;;;;4915085;29;20217;-61
2024/03/23 04:07:02;;;;;;;20.40;8.17;;;6.00;99.90;;;;;;4914909;29;21000;-61
2024/03/23 04:09:30;;;;;;;18.70;8.13;;;5.90;99.90;;;;;;4917962;29;20301;-61
2024/03/23 04:11:56;;;;;;;22.77;8.83;;;6.00;99.90;;;;;;4912310;29;20235;-61
2024/03/23 04:14:23;;;;;;;26.67;8.87;;;6.00;99.90;;;;;;4914432;29;20197;-61
2024/03/23 04:16:50;;;;;;;17.60;9.07;;;6.00;99.90;;;;;;4919450;29;20249;-61
2024/03/23 04:19:17;;;;;;;23.77;8.97;;;6.10;99.90;;;;;;4921232;29;20229;-61
2024/03/23 04:21:44;;;;;;;19.40;9.03;;;6.10;99.90;;;;;;4914522;29;20312;-60
2024/03/23 04:24:12;;;;;;;21.00;8.60;;;6.10;99.90;;;;;;4929946;29;20233;-61
2024/03/23 04:26:41;;;;;;;19.50;7.73;;;6.10;99.90;;;;;;4912731;29;20208;-61
2024/03/23 04:29:08;;;;;;;21.50;8.73;;;6.00;99.90;;;;;;4932007;29;20211;-61
2024/03/23 04:31:35;;;;;;;21.60;8.03;;;6.00;99.90;;;;;;4913157;29;20229;-61
2024/03/23 04:34:03;;;;;;;21.53;7.90;;;6.00;99.90;;;;;;4927028;29;20252;-61
2024/03/23 04:36:29;;;;;;;17.73;8.13;;;5.90;99.90;;;;;;4913719;29;20221;-61
2024/03/23 04:39:00;;;;;;;36.27;8.50;;;5.90;99.90;;;;;;4917106;29;20229;-61
2024/03/23 04:41:27;;;;;;;21.93;7.73;;;5.90;99.90;;;;;;4915426;29;20186;-61
2024/03/23 04:43:54;;;;;;;24.30;8.43;;;5.90;99.90;;;;;;4912498;29;20232;-61
2024/03/23 04:46:21;;;;;;;18.43;8.53;;;5.90;99.90;;;;;;4913579;29;20304;-61
2024/03/23 04:48:48;;;;;;;25.10;8.53;;;5.90;99.90;;;;;;4895438;29;20225;-61
2024/03/23 04:51:21;;;;;;;14.90;8.00;;;5.90;99.90;;;;;;4915077;29;20288;-61
2024/03/23 04:53:49;;;;;;;19.73;8.17;;;5.80;99.90;;;;;;4915733;29;20221;-61
2024/03/23 04:56:17;;;;;;;20.43;8.30;;;5.90;99.90;;;;;;4914942;29;20328;-61
2024/03/23 04:58:44;;;;;;;13.33;7.70;;;5.90;99.90;;;;;;4913990;29;20228;-61
2024/03/23 05:01:11;;;;;;;17.63;8.07;;;5.90;99.90;;;;;;4915382;29;20764;-61
2024/03/23 05:03:41;;;;;;;19.13;7.87;;;5.80;99.90;;;;;;4914008;29;20229;-61
2024/03/23 05:06:07;;;;;;;21.73;7.87;;;5.80;99.90;;;;;;4911830;29;20225;-61
2024/03/23 05:08:35;;;;;;;22.63;7.50;;;5.80;99.90;;;;;;4913985;29;20198;-62
2024/03/23 05:11:02;;;;;;;15.93;6.87;;;5.90;99.90;;;;;;4914038;29;20197;-61
2024/03/23 05:13:31;;;;;;;16.93;6.70;;;5.90;99.90;;;;;;4896531;29;20248;-61
2024/03/23 05:15:58;;;;;;;19.40;6.33;;;5.90;99.90;;;;;;4926356;29;20292;-61
2024/03/23 05:18:26;;;;;;;18.47;5.93;;;5.90;99.90;;;;;;4899413;29;20224;-61
2024/03/23 05:20:57;;;;;;;20.13;6.43;;;5.80;99.90;;;;;;4914489;29;20304;-61
2024/03/23 05:23:25;;;;;;;15.60;5.63;;;5.80;99.90;;;;;;4913153;29;20261;-61
2024/03/23 05:25:51;;;;;;;22.23;5.70;;;5.80;99.90;;;;;;4909777;29;20224;-61
2024/03/23 05:28:19;;;;;;;15.70;5.07;;;5.90;99.90;;;;;;4915109;29;20763;-61
2024/03/23 05:30:51;;;;;;;8.47;4.63;;;5.90;99.90;;;;;;4916503;29;20225;-61
2024/03/23 05:33:19;;;;;;;17.33;5.13;;;5.90;99.90;;;;;;4912545;29;20375;-61
2024/03/23 05:35:45;;;;;;;18.87;5.17;;;6.00;99.90;;;;;;4912982;29;20205;-61
2024/03/23 05:38:13;;;;;;;9.83;4.20;;;6.00;99.90;;;;;;4912039;29;20210;-61
2024/03/23 05:40:40;;;;;;;14.27;4.87;;;6.00;99.90;;;;;;4912964;29;20217;-61
2024/03/23 05:43:09;;;;;;;15.27;4.33;;;6.00;99.90;;;;;;4913595;29;20308;-61
2024/03/23 05:45:36;;;;;;;14.93;4.73;;;6.10;99.90;;;;;;4912427;29;20300;-61
2024/03/23 05:48:05;;;;;;;17.43;4.70;;;6.10;99.90;;;;;;4914241;29;20304;-61
2024/03/23 05:50:32;;;;;;;14.87;4.03;;;6.00;99.90;;;;;;4911979;29;20288;-61
2024/03/23 05:53:00;;;;;;;15.10;4.43;;;6.00;99.90;;;;;;4927503;29;20241;-61
2024/03/23 05:55:27;;;;;;;10.83;3.90;;;6.00;99.90;;;;;;4913854;29;20229;-61
2024/03/23 05:57:54;;;;;;;27.60;5.00;;;5.90;99.90;;;;;;4909950;29;20217;-61
2024/03/23 06:00:21;;;;;;;11.73;4.27;;;5.90;99.90;;;;;;4911996;29;20296;-61
2024/03/23 06:02:48;;;;;;;12.80;3.70;;;5.90;99.90;;;;;;4915988;29;20202;-61
2024/03/23 06:05:16;;;;;;;14.30;4.07;;;5.90;99.90;;;;;;4914927;29;20212;-61
2024/03/23 06:07:43;;;;;;;16.50;3.90;;;6.00;99.90;;;;;;4913139;29;20304;-61
2024/03/23 06:10:09;;;;;;;14.60;4.33;;;6.00;99.90;;;;;;4911727;29;20225;-61
2024/03/23 06:12:37;;;;;;;13.10;4.03;;;6.10;99.90;;;;;;4923256;29;20245;-61
2024/03/23 06:15:05;;;;;;;13.80;4.23;;;6.20;99.90;;;;;;4913639;29;20223;-61
2024/03/23 06:17:33;;;;;;;11.63;3.97;;;6.20;99.90;;;;;;4912296;29;20232;-61
2024/03/23 06:19:59;;;;;;;17.47;4.60;;;6.30;99.90;;;;;;4913115;29;20252;-61
2024/03/23 06:22:28;;;;;;;15.43;4.70;;;6.20;99.90;;;;;;4912298;29;20217;-61
2024/03/23 06:24:55;;;;;;;21.77;4.23;;;6.20;99.90;;;;;;4912072;29;20229;-61
2024/03/23 06:27:22;;;;;;;11.30;4.13;;;6.40;99.90;;;;;;4913237;29;20252;-61
2024/03/23 06:29:48;;;;;;;17.70;4.20;;;6.50;99.90;;;;;;4910966;29;20217;-61
2024/03/23 06:32:16;;;;;;;15.03;4.23;;;6.60;99.90;;;;;;4927065;29;20994;-61
2024/03/23 06:34:42;;;;;;;19.63;4.47;;;6.70;99.90;;;;;;4906313;29;20722;-62
2024/03/23 06:37:09;;;;;;;20.07;4.37;;;6.60;99.90;;;;;;4928273;29;20228;-61
2024/03/23 06:39:37;;;;;;;15.90;4.00;;;6.50;99.90;;;;;;4913190;29;20807;-62
2024/03/23 06:42:05;;;;;;;14.73;3.80;;;6.40;99.90;;;;;;4911592;29;20219;-61
2024/03/23 06:44:32;;;;;;;11.07;3.33;;;6.40;99.90;;;;;;4914897;29;20728;-61
2024/03/23 06:47:02;;;;;;;7.83;3.17;;;6.30;99.90;;;;;;4916258;29;20225;-61
2024/03/23 06:49:30;;;;;;;15.47;3.63;;;6.10;99.90;;;;;;4911893;29;20221;-62
2024/03/23 06:51:59;;;;;;;12.27;3.20;;;6.10;99.90;;;;;;4910131;29;20300;-62
2024/03/23 06:54:26;;;;;;;8.70;3.23;;;6.00;99.90;;;;;;4911259;29;20718;-62
2024/03/23 06:56:55;;;;;;;9.17;3.47;;;5.90;99.90;;;;;;4913774;29;20632;-62
2024/03/23 06:59:23;;;;;;;10.47;3.33;;;5.80;99.90;;;;;;4913664;29;20201;-62
2024/03/23 07:01:52;;;;;;;11.97;3.40;;;5.70;99.90;;;;;;4913748;29;20364;-62
2024/03/23 07:04:18;;;;;;;17.27;4.40;;;5.70;99.90;;;;;;4910893;29;20232;-61
2024/03/23 07:06:46;;;;;;;15.33;4.27;;;5.70;99.90;;;;;;4911106;29;20225;-61
2024/03/23 07:09:12;;;;;;;14.17;3.97;;;6.00;99.90;;;;;;4912082;29;20308;-61
2024/03/23 07:11:40;;;;;;;17.60;4.10;;;6.60;99.90;;;;;;4912980;29;20675;-62
2024/03/23 07:14:08;;;;;;;9.97;3.60;;;7.30;99.90;;;;;;4911035;29;20213;-61
2024/03/23 07:16:35;;;;;;;15.53;4.53;;;7.60;99.90;;;;;;4895032;29;20420;-62
2024/03/23 07:19:03;;;;;;;18.47;4.90;;;7.50;99.90;;;;;;4912537;29;20225;-61
2024/03/23 07:21:29;;;;;;;14.23;4.17;;;7.70;99.90;;;;;;4911785;29;20254;-62
2024/03/23 07:23:56;;;;;;;17.87;4.13;;;8.30;99.90;;;;;;4929226;29;20264;-61
2024/03/23 07:26:23;;;;;;;11.97;3.90;;;8.50;99.90;;;;;;4911883;29;20220;-61
2024/03/23 07:28:50;;;;;;;14.97;3.90;;;8.40;99.90;;;;;;4901729;29;20303;-62
2024/03/23 07:31:18;;;;;;;12.43;3.40;;;8.70;99.90;;;;;;4913981;29;20308;-62
2024/03/23 07:33:47;;;;;;;8.03;3.03;;;9.30;99.90;;;;;;4912679;29;20221;-62
2024/03/23 07:36:13;;;;;;;13.00;3.80;;;9.80;99.90;;;;;;4913090;29;20221;-62
2024/03/23 07:38:41;;;;;;;10.33;2.60;;;10.20;99.90;;;;;;4922311;23;20240;-64
2024/03/23 07:41:09;;;;;;;17.13;3.30;;;10.60;99.90;;;;;;4919570;29;20197;-65
2024/03/23 07:43:38;;;;;;;22.10;3.87;;;10.30;93.80;;;;;;4925210;29;20304;-65
2024/03/23 07:46:04;;;;;;;9.27;3.10;;;10.00;99.50;;;;;;4901004;29;20312;-65
2024/03/23 07:48:33;;;;;;;10.23;3.10;;;9.70;99.90;;;;;;4919939;29;20233;-65
2024/03/23 07:51:01;;;;;;;12.03;2.90;;;10.10;99.90;;;;;;4918612;29;20231;-64
2024/03/23 07:53:28;;;;;;;6.23;2.90;;;10.40;99.90;;;;;;4905499;29;20231;-65
2024/03/23 07:55:56;;;;;;;11.50;3.00;;;10.50;96.00;;;;;;4904807;29;20224;-65
2024/03/23 07:58:23;;;;;;;4.30;2.83;;;10.70;58.60;;;;;;4920902;29;20224;-65
2024/03/23 08:00:50;;;;;;;13.47;3.23;;;11.10;93.50;;;;;;4925532;29;20224;-66
2024/03/23 08:03:17;;;;;;;8.93;2.90;;;11.80;70.80;;;;;;4926716;29;20230;-64
2024/03/23 08:05:45;;;;;;;8.93;2.73;;;11.80;21.00;;;;;;4911172;29;20578;-64
2024/03/23 08:08:12;;;;;;;9.07;2.90;;;12.00;37.50;;;;;;4934352;29;20193;-65
2024/03/23 08:10:48;;;;;;;11.03;2.90;;;12.20;11.90;;;;;;4928281;29;20225;-66
2024/03/23 08:13:16;;;;;;;10.23;3.00;;;12.50;46.40;;;;;;4925887;29;20216;-65
2024/03/23 08:15:44;;;;;;;9.27;3.30;;;12.90;77.20;;;;;;4930691;29;20228;-67
2024/03/23 08:18:11;;;;;;;10.00;3.37;;;12.70;19.30;;;;;;4932829;29;20230;-65
2024/03/23 08:20:43;;;;;;;6.03;2.80;;;12.80;99.90;;;;;;4929478;29;20276;-65
2024/03/23 08:23:15;;;;;;;13.40;3.90;;;12.60;99.90;;;;;;4924752;29;20209;-66
2024/03/23 08:25:47;;;;;;;9.07;2.73;;;12.70;99.90;;;;;;4924144;29;20236;-64
2024/03/23 08:28:13;;;;;;;10.97;3.57;;;12.20;99.90;;;;;;4926047;29;20271;-66
2024/03/23 08:30:47;;;;;;;10.30;3.27;;;12.20;99.90;;;;;;4923393;29;20221;-66
2024/03/23 08:33:19;;;;;;;8.70;3.30;;;12.50;99.90;;;;;;4905519;29;22403;-66
2024/03/23 08:35:56;;;;;;;10.93;4.10;;;12.50;99.90;;;;;;4924906;29;20236;-66
2024/03/23 08:38:24;;;;;;;9.67;3.13;;;12.80;99.90;;;;;;4923623;29;20737;-65
2024/03/23 08:40:58;;;;;;;14.33;3.67;;;13.10;99.90;;;;;;4905148;29;20308;-66
2024/03/23 08:43:25;;;;;;;12.80;4.27;;;13.30;99.90;;;;;;4914260;29;20250;-66
2024/03/23 08:45:52;;;;;;;13.60;3.73;;;13.50;99.90;;;;;;4925725;29;20231;-66
2024/03/23 08:48:20;;;;;;;6.63;2.73;;;12.90;99.90;;;;;;4924465;29;20224;-66
2024/03/23 08:50:47;;;;;;;7.30;2.80;;;12.60;99.90;;;;;;4908054;29;20264;-66
2024/03/23 08:53:14;;;;;;;10.40;2.90;;;12.10;99.90;;;;;;4926030;29;20205;-65
2024/03/23 08:55:43;;;;;;;10.70;3.20;;;12.00;99.90;;;;;;4924961;29;20255;-65
2024/03/23 08:58:13;;;;;;;7.53;2.60;;;11.80;99.90;;;;;;4923727;29;20226;-65
2024/03/23 09:00:41;;;;;;;6.17;2.80;;;12.00;99.90;;;;;;4927172;29;20232;-64
2024/03/23 09:03:13;;;;;;;6.77;2.67;;;11.80;99.90;;;;;;4920704;29;20235;-68
2024/03/23 09:05:40;;;;;;;10.03;3.23;;;11.30;99.90;;;;;;4920661;29;20231;-65
2024/03/23 09:08:09;;;;;;;6.67;3.40;;;11.00;99.90;;;;;;4924912;29;20219;-65
2024/03/23 09:10:40;;;;;;;10.63;3.03;;;10.80;99.90;;;;;;4922347;29;20222;-65
2024/03/23 09:13:08;;;;;;;7.60;3.03;;;10.90;99.90;;;;;;4922132;29;20620;-64
2024/03/23 09:15:37;;;;;;;6.47;2.87;;;11.40;99.90;;;;;;4924660;29;20729;-64
2024/03/23 09:18:04;;;;;;;6.83;2.63;;;11.70;99.90;;;;;;4923646;29;20267;-65
2024/03/23 09:20:34;;;;;;;8.03;2.53;;;11.80;99.90;;;;;;4913180;29;20201;-64
2024/03/23 09:23:00;;;;;;;8.73;2.90;;;11.80;99.90;;;;;;4925918;29;20219;-65
2024/03/23 09:25:28;;;;;;;6.83;2.60;;;12.10;99.90;;;;;;4923670;29;20225;-64
2024/03/23 09:27:54;;;;;;;8.53;2.90;;;12.30;99.90;;;;;;4924542;29;20223;-64
2024/03/23 09:30:23;;;;;;;7.23;3.13;;;13.10;99.90;;;;;;4923487;29;20225;-64
2024/03/23 09:32:49;;;;;;;10.47;4.50;;;13.20;99.90;;;;;;4923898;29;20237;-63
2024/03/23 09:35:17;;;;;;;12.47;4.13;;;12.90;99.90;;;;;;4923556;29;20207;-64
2024/03/23 09:37:45;;;;;;;6.47;2.90;;;12.60;99.90;;;;;;4922435;29;20320;-64
2024/03/23 09:40:13;;;;;;;4.93;3.23;;;12.40;99.90;;;;;;4923314;29;20223;-64
2024/03/23 09:42:46;;;;;;;6.80;3.47;;;12.70;99.90;;;;;;4921013;29;20305;-64
2024/03/23 09:45:18;;;;;;;4.30;2.77;;;12.60;99.90;;;;;;4906948;29;20229;-64
2024/03/23 09:47:46;;;;;;;5.67;2.73;;;11.80;99.90;;;;;;4925877;29;20197;-65
2024/03/23 09:50:14;;;;;;;6.80;3.07;;;11.20;99.90;;;;;;4923756;29;20196;-65
2024/03/23 09:52:41;;;;;;;6.70;3.27;;;11.50;99.90;;;;;;4923423;29;20316;-65
2024/03/23 09:55:09;;;;;;;8.80;2.97;;;12.20;99.90;;;;;;4922234;29;20798;-66
2024/03/23 09:57:36;;;;;;;7.20;3.47;;;12.70;99.90;;;;;;4924222;29;20216;-64
2024/03/23 10:00:06;;;;;;;7.10;3.50;;;12.70;99.90;;;;;;4920419;29;20225;-64
2024/03/23 10:02:33;;;;;;;8.47;3.93;;;12.60;99.90;;;;;;4927312;29;20284;-63
2024/03/23 10:05:02;;;;;;;7.73;3.50;;;11.90;99.90;;;;;;4923728;29;20719;-64
2024/03/23 10:07:29;;;;;;;8.07;3.40;;;12.20;99.90;;;;;;4922358;29;20896;-63
2024/03/23 10:09:57;;;;;;;7.33;3.27;;;13.60;99.90;;;;;;4921550;29;20304;-63
2024/03/23 10:12:24;;;;;;;4.90;2.60;;;14.10;99.90;;;;;;4922481;29;20223;-64
2024/03/23 10:14:51;;;;;;;9.53;3.30;;;14.70;99.90;;;;;;4924977;28;20295;-64
2024/03/23 10:17:23;;;;;;;5.03;2.80;;;15.90;99.90;;;;;;4932487;29;20606;-63
2024/03/23 10:19:52;;;;;;;8.60;3.33;;;15.60;99.90;;;;;;4912280;29;20371;-65
2024/03/23 10:22:21;;;;;;;4.53;2.70;;;15.60;99.90;;;;;;4927836;29;20284;-65
2024/03/23 10:24:49;;;;;;;5.27;2.90;;;15.90;99.90;;;;;;4925373;29;20296;-64
2024/03/23 10:27:17;;;;;;;5.97;2.73;;;17.30;99.90;;;;;;4925628;29;20307;-65
2024/03/23 10:29:45;;;;;;;4.43;2.87;;;18.30;99.90;;;;;;4916886;29;26020;-65
2024/03/23 10:32:13;;;;;;;4.13;2.53;;;17.90;96.40;;;;;;4911239;29;20197;-65
2024/03/23 10:34:40;;;;;;;8.10;2.60;;;17.40;99.60;;;;;;4922713;29;21952;-65
2024/03/23 10:37:08;;;;;;;5.83;2.60;;;16.90;98.70;;;;;;4917591;29;20244;-65
2024/03/23 10:39:37;;;;;;;10.37;3.17;;;16.20;99.90;;;;;;4921593;29;20320;-65
2024/03/23 10:42:05;;;;;;;6.80;2.60;;;15.00;99.90;;;;;;4921770;29;20221;-64
2024/03/23 10:44:33;;;;;;;4.07;2.83;;;14.20;99.90;;;;;;4939106;28;20197;-65
2024/03/23 10:47:00;;;;;;;4.87;2.90;;;14.10;99.90;;;;;;4925339;29;20878;-65
2024/03/23 10:49:30;;;;;;;4.07;2.40;;;14.20;99.90;;;;;;4925077;29;21017;-65
2024/03/23 10:52:00;;;;;;;4.07;2.70;;;14.30;99.90;;;;;;4925019;29;20227;-65
2024/03/23 10:54:29;;;;;;;2.57;2.00;;;14.00;99.90;;;;;;4904240;29;20317;-65
2024/03/23 10:57:03;;;;;;;7.30;2.37;;;13.30;99.90;;;;;;4921565;29;20322;-64
2024/03/23 10:59:32;;;;;;;4.87;2.10;;;13.10;99.90;;;;;;4907428;29;20319;-63
2024/03/23 11:02:00;;;;;;;3.47;2.20;;;13.00;99.90;;;;;;4925638;29;20198;-65
2024/03/23 11:04:32;;;;;;;9.00;2.17;;;13.30;99.90;;;;;;4923648;29;20243;-64
2024/03/23 11:06:58;;;;;;;5.30;1.83;;;13.60;99.90;;;;;;4920087;29;20228;-65
2024/03/23 11:09:45;;;;;;;2.50;2.10;;;13.80;99.90;;;;;;4920309;29;20229;-65
2024/03/23 11:12:31;;;;;;;6.47;1.80;;;14.30;99.90;;;;;;4921724;29;20229;-65
2024/03/23 11:15:02;;;;;;;6.30;1.87;;;14.30;99.90;;;;;;4921690;29;20228;-64
2024/03/23 11:17:29;;;;;;;5.00;1.70;;;14.60;99.90;;;;;;4922157;29;20211;-64
2024/03/23 11:19:58;;;;;;;6.37;1.70;;;15.50;99.90;;;;;;4924058;29;20256;-65
2024/03/23 11:22:44;;;;;;;3.03;1.50;;;16.00;99.90;;;;;;4920896;29;20331;-64
2024/03/23 11:25:20;;;;;;;5.33;1.60;;;15.20;95.30;;;;;;4912874;29;20231;-64
2024/03/23 11:27:49;;;;;;;5.33;1.90;;;15.00;99.70;;;;;;4922439;29;20218;-64
2024/03/23 11:30:18;;;;;;;5.83;2.03;;;14.50;99.40;;;;;;4922883;29;20290;-65
2024/03/23 11:32:46;;;;;;;2.33;1.30;;;14.40;99.90;;;;;;4923695;29;20809;-64
2024/03/23 11:35:27;;;;;;;1.77;1.30;;;15.20;99.90;;;;;;4923685;29;20211;-66
2024/03/23 11:38:04;;;;;;;4.60;1.97;;;15.70;98.80;;;;;;4922915;29;20244;-65
2024/03/23 11:40:32;;;;;;;6.73;1.97;;;15.10;99.90;;;;;;4925258;29;21841;-65
2024/03/23 11:43:01;;;;;;;2.90;1.57;;;14.60;99.90;;;;;;4922868;29;20216;-65
2024/03/23 11:45:28;;;;;;;4.77;1.67;;;15.00;99.90;;;;;;4916076;29;22027;-64
2024/03/23 11:48:06;;;;;;;5.83;2.20;;;15.20;99.90;;;;;;4920573;29;20228;-64
2024/03/23 11:50:34;;;;;;;3.10;1.50;;;14.90;99.90;;;;;;4929821;29;20208;-63
2024/03/23 11:53:17;;;;;;;3.57;1.40;;;14.90;99.90;;;;;;4924366;29;20339;-63
2024/03/23 11:55:46;;;;;;;5.90;1.87;;;15.10;99.90;;;;;;4919782;29;20221;-63
2024/03/23 11:58:15;;;;;;;2.30;1.40;;;14.80;99.50;;;;;;4921783;29;20246;-63
2024/03/23 12:00:42;;;;;;;1.60;1.10;;;14.50;99.90;;;;;;4920847;29;20315;-63
2024/03/23 12:03:11;;;;;;;3.70;1.80;;;13.80;99.90;;;;;;4923865;29;20305;-64
2024/03/23 12:05:38;;;;;;;6.53;1.87;;;14.70;99.90;;;;;;4926759;29;20207;-62
2024/03/23 12:08:23;;;;;;;2.90;1.47;;;15.10;99.90;;;;;;4926153;29;20192;-63
2024/03/23 12:10:51;;;;;;;1.73;1.63;;;15.90;99.20;;;;;;4918552;29;20237;-63
2024/03/23 12:13:21;;;;;;;5.60;1.70;;;16.20;98.80;;;;;;4922597;29;20231;-63
2024/03/23 12:15:50;;;;;;;3.73;1.70;;;16.60;97.20;;;;;;4930669;29;20264;-64
2024/03/23 12:18:18;;;;;;;4.83;1.60;;;16.40;97.60;;;;;;4930813;29;20225;-64
2024/03/23 12:20:44;;;;;;;6.70;1.80;;;15.80;97.00;;;;;;4927603;29;20855;-63
2024/03/23 12:23:13;;;;;;;3.57;1.60;;;15.50;97.30;;;;;;4926311;29;20228;-64
2024/03/23 12:25:40;;;;;;;6.13;2.20;;;14.80;99.90;;;;;;4921220;29;20230;-63
2024/03/23 12:28:08;;;;;;;2.53;2.00;;;14.10;99.90;;;;;;4929063;29;20232;-64
2024/03/23 12:30:39;;;;;;;2.13;1.60;;;14.70;99.90;;;;;;4925262;29;20233;-64
2024/03/23 12:33:07;;;;;;;7.07;1.93;;;15.40;99.90;;;;;;4927097;29;20307;-63
2024/03/23 12:35:33;;;;;;;6.37;1.73;;;15.10;99.90;;;;;;4933091;29;20253;-63
2024/03/23 12:38:01;;;;;;;5.03;1.53;;;14.20;99.90;;;;;;4932991;29;20608;-64
2024/03/23 12:40:27;;;;;;;7.93;1.80;;;13.40;99.90;;;;;;4925952;29;20416;-63
2024/03/23 12:42:55;;;;;;;5.47;1.70;;;12.80;99.90;;;;;;4926836;29;20316;-64
2024/03/23 12:45:22;;;;;;;7.77;1.90;;;12.10;99.90;;;;;;4930465;29;20300;-64
2024/03/23 12:47:52;;;;;;;4.83;1.57;;;11.40;99.90;;;;;;4912436;29;20263;-63
2024/03/23 12:50:18;;;;;;;4.57;2.00;;;11.00;99.90;;;;;;4925949;29;20281;-64
2024/03/23 12:52:45;;;;;;;3.13;2.27;;;10.80;99.90;;;;;;4910944;29;20231;-64